createdAt,value
2022-11-27T00:00:33.337Z,56.05
2022-11-27T00:03:19.075Z,53.33
2022-11-27T00:06:05.174Z,53.08
2022-11-27T00:08:51.587Z,55.17
2022-11-27T00:11:40.065Z,51.70
2022-11-27T00:14:25.721Z,41.50
2022-11-27T00:21:48.543Z,37.40
2022-11-27T00:24:33.921Z,35.92
2022-11-27T00:27:19.188Z,36.15
2022-11-27T00:30:05.136Z,46.75
2022-11-27T00:32:50.389Z,34.03
2022-11-27T00:35:35.851Z,27.70
2022-11-27T00:38:21.249Z,26.77
2022-11-27T00:41:27.299Z,27.02
2022-11-27T00:44:13.699Z,23.48
2022-11-27T00:46:59.352Z,25.63
2022-11-27T00:49:44.632Z,25.13
2022-11-27T00:52:30.086Z,29.15
2022-11-27T00:55:15.401Z,27.38
2022-11-27T00:58:00.645Z,27.60
2022-11-27T01:00:46.285Z,25.23
2022-11-27T01:03:32.294Z,35.63
2022-11-27T01:06:18.902Z,34.33
2022-11-27T01:09:05.596Z,33.97
2022-11-27T01:11:51.169Z,34.13
2022-11-27T01:14:36.743Z,38.42
2022-11-27T01:17:22.080Z,27.95
2022-11-27T01:20:08.111Z,36.17
2022-11-27T01:22:53.421Z,32.47
2022-11-27T01:25:39.055Z,27.13
2022-11-27T01:28:24.657Z,33.72
2022-11-27T01:31:19.367Z,30.85
2022-11-27T01:34:08.734Z,28.60
2022-11-27T01:36:54.136Z,25.02
2022-11-27T01:39:39.747Z,34.60
2022-11-27T01:42:25.227Z,34.28
2022-11-27T01:45:11.650Z,31.95
2022-11-27T01:48:00.984Z,28.95
2022-11-27T01:50:46.432Z,35.13
2022-11-27T01:53:34.312Z,35.78
2022-11-27T01:56:21.990Z,31.98
2022-11-27T01:59:08.235Z,31.92
2022-11-27T02:01:53.978Z,33.67
2022-11-27T02:04:39.815Z,31.65
2022-11-27T02:07:25.499Z,30.92
2022-11-27T02:10:11.659Z,29.38
2022-11-27T02:13:05.095Z,28.38
2022-11-27T02:16:03.516Z,25.08
2022-11-27T02:19:06.137Z,29.38
2022-11-27T02:22:44.605Z,23.98
2022-11-27T02:25:55.126Z,29.42
2022-11-27T02:28:49.997Z,25.58
2022-11-27T02:31:53.949Z,31.90
2022-11-27T02:34:46.055Z,29.85
2022-11-27T02:37:47.300Z,27.10
2022-11-27T02:40:46.023Z,29.15
2022-11-27T02:43:36.126Z,30.55
2022-11-27T02:46:22.387Z,24.70
2022-11-27T02:49:12.951Z,27.05
2022-11-27T02:52:00.831Z,26.30
2022-11-27T02:54:50.801Z,22.05
2022-11-27T02:57:39.142Z,22.83
2022-11-27T03:00:24.821Z,24.85
2022-11-27T03:03:13.694Z,21.58
2022-11-27T03:06:06.883Z,20.00
2022-11-27T03:09:05.203Z,20.25
2022-11-27T03:11:50.757Z,19.83
2022-11-27T03:14:39.463Z,21.52
2022-11-27T03:17:51.578Z,25.50
2022-11-27T03:20:41.156Z,18.73
2022-11-27T03:23:28.339Z,20.27
2022-11-27T03:26:13.532Z,20.05
2022-11-27T03:29:01.061Z,24.95
2022-11-27T03:31:47.114Z,23.65
2022-11-27T03:34:32.841Z,29.52
2022-11-27T03:37:18.634Z,25.63
2022-11-27T03:40:05.699Z,29.70
2022-11-27T03:43:25.703Z,28.48
2022-11-27T03:46:22.500Z,33.10
2022-11-27T03:49:18.256Z,32.35
2022-11-27T03:52:30.962Z,36.40
2022-11-27T03:55:52.204Z,32.80
2022-11-27T03:58:42.813Z,43.25
2022-11-27T04:01:30.889Z,34.45
2022-11-27T04:04:16.661Z,32.75
2022-11-27T04:07:02.039Z,32.88
2022-11-27T04:09:47.474Z,28.08
2022-11-27T04:12:33.023Z,34.03
2022-11-27T04:15:18.500Z,28.25
2022-11-27T04:18:03.925Z,24.02
2022-11-27T04:20:49.504Z,29.00
2022-11-27T04:23:34.853Z,31.90
2022-11-27T04:26:20.326Z,22.95
2022-11-27T04:29:06.056Z,37.50
2022-11-27T04:31:52.963Z,35.20
2022-11-27T04:34:39.761Z,31.70
2022-11-27T04:37:25.954Z,27.80
2022-11-27T04:40:11.867Z,34.80
2022-11-27T04:42:57.239Z,36.67
2022-11-27T04:45:44.343Z,31.85
2022-11-27T04:48:29.818Z,36.00
2022-11-27T04:51:15.274Z,42.28
2022-11-27T04:54:00.705Z,48.17
2022-11-27T04:56:46.221Z,37.60
2022-11-27T04:59:31.727Z,42.80
2022-11-27T05:02:17.157Z,46.45
2022-11-27T05:05:02.810Z,38.33
2022-11-27T05:07:48.470Z,47.80
2022-11-27T05:10:33.916Z,39.42
2022-11-27T05:13:19.190Z,38.67
2022-11-27T05:16:05.448Z,38.67
2022-11-27T05:18:51.483Z,35.30
2022-11-27T05:21:38.017Z,32.08
2022-11-27T05:24:25.767Z,42.63
2022-11-27T05:27:11.446Z,40.92
2022-11-27T05:29:56.663Z,33.80
2022-11-27T05:32:42.056Z,40.28
2022-11-27T05:35:27.659Z,49.90
2022-11-27T05:38:13.185Z,48.85
2022-11-27T05:40:59.033Z,40.80
2022-11-27T05:43:44.384Z,40.85
2022-11-27T05:46:29.858Z,48.80
2022-11-27T05:49:16.504Z,47.50
2022-11-27T05:52:02.142Z,41.45
2022-11-27T05:54:47.383Z,31.48
2022-11-27T05:57:33.179Z,36.20
2022-11-27T06:00:18.573Z,41.45
2022-11-27T06:03:04.073Z,46.38
2022-11-27T06:05:49.323Z,36.97
2022-11-27T06:08:37.072Z,37.25
2022-11-27T06:11:23.348Z,35.22
2022-11-27T06:14:10.126Z,33.70
2022-11-27T06:16:55.912Z,36.58
2022-11-27T06:19:41.125Z,39.38
2022-11-27T06:22:26.551Z,41.97
2022-11-27T06:25:12.046Z,40.50
2022-11-27T06:28:00.585Z,41.70
2022-11-27T06:30:48.854Z,41.17
2022-11-27T06:33:34.720Z,31.40
2022-11-27T06:36:21.891Z,31.13
2022-11-27T06:39:10.043Z,35.90
2022-11-27T06:41:55.349Z,41.13
2022-11-27T06:44:41.433Z,36.15
2022-11-27T06:47:27.018Z,49.42
2022-11-27T06:50:12.963Z,38.67
2022-11-27T06:52:58.486Z,37.22
2022-11-27T06:55:43.850Z,40.97
2022-11-27T06:58:36.832Z,50.75
2022-11-27T07:01:26.490Z,37.17
2022-11-27T07:04:19.477Z,43.13
2022-11-27T07:07:15.040Z,42.55
2022-11-27T07:10:06.535Z,37.00
2022-11-27T07:12:59.784Z,41.30
2022-11-27T07:15:47.621Z,38.95
2022-11-27T07:18:48.169Z,44.05
2022-11-27T07:21:39.515Z,39.13
2022-11-27T07:24:27.261Z,48.50
2022-11-27T07:27:26.849Z,47.05
2022-11-27T07:30:17.951Z,46.28
2022-11-27T07:33:19.270Z,43.45
2022-11-27T07:36:13.711Z,41.85
2022-11-27T07:38:59.450Z,52.15
2022-11-27T07:42:36.495Z,48.90
2022-11-27T07:45:16.377Z,53.42
2022-11-27T07:48:02.052Z,45.78
2022-11-27T07:50:49.382Z,39.40
2022-11-27T07:53:45.865Z,46.40
2022-11-27T07:56:32.782Z,48.15
2022-11-27T07:59:18.291Z,47.72
2022-11-27T08:02:04.029Z,55.75
2022-11-27T08:04:49.591Z,48.42
2022-11-27T08:07:35.055Z,53.55
2022-11-27T08:10:20.511Z,57.25
2022-11-27T08:13:06.622Z,46.63
2022-11-27T08:15:52.250Z,52.60
2022-11-27T08:18:37.954Z,54.10
2022-11-27T08:21:38.193Z,51.15
2022-11-27T08:24:39.255Z,51.47
2022-11-27T08:27:25.564Z,71.57
2022-11-27T08:30:11.661Z,51.03
2022-11-27T08:32:57.239Z,42.28
2022-11-27T08:35:49.011Z,50.63
2022-11-27T08:38:34.988Z,53.20
2022-11-27T08:41:20.526Z,38.60
2022-11-27T08:44:09.355Z,42.42
2022-11-27T08:46:55.417Z,39.65
2022-11-27T08:49:45.900Z,42.90
2022-11-27T08:52:32.399Z,37.33
2022-11-27T08:55:18.355Z,58.95
2022-11-27T08:58:04.995Z,54.78
2022-11-27T09:00:50.419Z,51.97
2022-11-27T09:03:35.881Z,42.88
2022-11-27T09:06:24.398Z,38.85
2022-11-27T09:09:10.782Z,47.78
2022-11-27T09:11:56.369Z,35.25
2022-11-27T09:14:42.220Z,34.33
2022-11-27T09:17:27.900Z,29.67
2022-11-27T09:20:14.371Z,47.75
2022-11-27T09:23:02.624Z,53.47
2022-11-27T09:25:49.567Z,44.85
2022-11-27T09:28:37.080Z,39.30
2022-11-27T09:31:23.322Z,35.05
2022-11-27T09:34:08.809Z,31.85
2022-11-27T09:36:54.281Z,29.23
2022-11-27T09:39:39.833Z,35.03
2022-11-27T09:42:39.920Z,33.53
2022-11-27T09:45:27.304Z,32.13
2022-11-27T09:48:28.801Z,40.65
2022-11-27T09:51:36.084Z,34.28
2022-11-27T09:54:41.640Z,28.67
2022-11-27T09:57:38.062Z,32.03
2022-11-27T10:00:24.613Z,39.38
2022-11-27T10:03:16.891Z,36.85
2022-11-27T10:06:26.311Z,41.17
2022-11-27T10:09:15.394Z,40.42
2022-11-27T10:12:33.147Z,37.95
2022-11-27T10:15:40.743Z,40.58
2022-11-27T10:18:37.845Z,38.65
2022-11-27T10:21:49.422Z,32.67
2022-11-27T10:24:46.356Z,36.08
2022-11-27T10:27:49.884Z,31.27
2022-11-27T10:30:42.152Z,36.42
2022-11-27T10:36:29.976Z,25.10
2022-11-27T10:39:22.148Z,25.90
2022-11-27T10:42:13.381Z,34.30
2022-11-27T10:45:04.224Z,31.13
2022-11-27T10:47:50.650Z,28.37
2022-11-27T10:50:36.087Z,30.23
2022-11-27T10:53:33.834Z,26.85
2022-11-27T10:56:47.463Z,23.67
2022-11-27T10:59:43.780Z,22.70
2022-11-27T11:02:34.828Z,28.52
2022-11-27T11:05:45.164Z,37.13
2022-11-27T11:08:30.159Z,32.05
2022-11-27T11:11:26.452Z,31.35
2022-11-27T11:14:24.665Z,27.88
2022-11-27T11:17:18.344Z,23.08
2022-11-27T11:20:24.647Z,30.95
2022-11-27T11:23:22.042Z,24.80
2022-11-27T11:26:23.854Z,17.45
2022-11-27T11:29:30.495Z,22.50
2022-11-27T11:32:21.574Z,22.33
2022-11-27T11:35:23.272Z,16.58
2022-11-27T11:38:16.985Z,18.52
2022-11-27T11:41:06.526Z,14.85
2022-11-27T11:43:59.343Z,16.75
2022-11-27T11:46:51.711Z,21.60
2022-11-27T11:49:37.201Z,16.05
2022-11-27T11:52:51.226Z,19.17
2022-11-27T11:56:01.601Z,19.17
2022-11-27T11:59:05.742Z,14.82
2022-11-27T12:02:12.752Z,15.48
2022-11-27T12:05:15.594Z,14.40
2022-11-27T12:11:08.982Z,16.00
2022-11-27T12:14:03.503Z,19.25
2022-11-27T12:17:07.241Z,19.35
2022-11-27T12:20:37.267Z,15.55
2022-11-27T12:23:53.606Z,19.33
2022-11-27T12:27:14.503Z,18.27
2022-11-27T12:30:08.967Z,19.40
2022-11-27T12:33:13.432Z,19.50
2022-11-27T12:36:31.333Z,30.17
2022-11-27T12:39:32.659Z,15.23
2022-11-27T12:42:22.367Z,14.10
2022-11-27T12:45:25.614Z,15.40
2022-11-27T12:48:21.058Z,14.45
2022-11-27T12:51:12.489Z,14.52
2022-11-27T12:54:09.821Z,18.10
2022-11-27T12:56:59.321Z,16.50
2022-11-27T12:59:58.399Z,18.58
2022-11-27T13:02:49.892Z,16.83
2022-11-27T13:05:48.632Z,15.40
2022-11-27T13:09:02.708Z,24.88
2022-11-27T13:11:48.265Z,14.55
2022-11-27T13:14:38.193Z,11.52
2022-11-27T13:17:38.005Z,12.02
2022-11-27T13:20:35.010Z,9.70
2022-11-27T13:23:21.847Z,13.13
2022-11-27T13:26:26.626Z,11.57
2022-11-27T13:29:30.105Z,15.70
2022-11-27T13:32:33.970Z,12.10
2022-11-27T13:35:42.721Z,10.52
2022-11-27T13:38:29.751Z,12.40
2022-11-27T13:41:34.256Z,12.85
2022-11-27T13:44:43.933Z,13.40
2022-11-27T13:47:38.845Z,15.50
2022-11-27T13:50:29.726Z,11.68
2022-11-27T13:53:17.541Z,18.52
2022-11-27T13:56:30.561Z,13.65
2022-11-27T13:59:36.398Z,15.95
2022-11-27T14:02:46.321Z,11.15
2022-11-27T14:05:45.836Z,12.40
2022-11-27T14:08:41.403Z,17.05
2022-11-27T14:11:40.321Z,12.50
2022-11-27T14:14:28.390Z,15.25
2022-11-27T14:17:27.659Z,14.57
2022-11-27T14:20:16.457Z,17.25
2022-11-27T14:23:17.261Z,22.13
2022-11-27T14:26:10.571Z,15.68
2022-11-27T14:29:00.519Z,14.70
2022-11-27T14:31:46.485Z,15.25
2022-11-27T14:34:34.194Z,17.30
2022-11-27T14:37:27.628Z,13.52
2022-11-27T14:40:15.951Z,15.82
2022-11-27T14:43:14.422Z,19.08
2022-11-27T14:46:01.915Z,17.23
2022-11-27T14:48:58.630Z,22.10
2022-11-27T14:51:44.545Z,18.70
2022-11-27T14:54:34.618Z,21.35
2022-11-27T14:57:26.611Z,11.57
2022-11-27T15:00:31.546Z,14.18
2022-11-27T15:03:17.945Z,16.42
2022-11-27T15:06:07.369Z,15.20
2022-11-27T15:09:15.942Z,15.85
2022-11-27T15:12:07.911Z,15.10
2022-11-27T15:14:59.685Z,19.75
2022-11-27T15:17:51.575Z,19.48
2022-11-27T15:20:43.164Z,14.57
2022-11-27T15:23:31.275Z,18.67
2022-11-27T15:26:36.493Z,15.63
2022-11-27T15:29:38.097Z,13.95
2022-11-27T15:32:26.163Z,17.38
2022-11-27T15:35:14.371Z,13.80
2022-11-27T15:38:05.516Z,13.43
2022-11-27T15:41:01.718Z,13.27
2022-11-27T15:43:47.455Z,17.90
2022-11-27T15:46:35.138Z,17.52
2022-11-27T15:49:22.904Z,22.33
2022-11-27T15:52:08.747Z,28.60
2022-11-27T15:54:55.522Z,46.65
2022-11-27T15:57:41.615Z,45.88
2022-11-27T16:00:27.132Z,38.53
2022-11-27T16:03:14.223Z,29.60
2022-11-27T16:06:07.212Z,31.25
2022-11-27T16:09:01.046Z,25.27
2022-11-27T16:11:47.087Z,26.48
2022-11-27T16:14:32.749Z,60.83
2022-11-27T16:17:18.256Z,43.08
2022-11-27T16:20:04.224Z,20.25
2022-11-27T16:22:50.175Z,16.63
2022-11-27T16:25:38.383Z,20.92
2022-11-27T16:28:25.619Z,17.40
2022-11-27T16:31:13.739Z,28.48
2022-11-27T16:34:01.477Z,43.42
2022-11-27T16:36:46.708Z,27.60
2022-11-27T16:39:33.714Z,28.88
2022-11-27T16:42:19.576Z,17.15
2022-11-27T16:45:05.755Z,17.10
2022-11-27T16:47:51.668Z,22.92
2022-11-27T16:50:37.015Z,23.73
2022-11-27T16:53:22.400Z,22.40
2022-11-27T16:56:11.456Z,26.88
2022-11-27T16:59:02.822Z,24.50
2022-11-27T17:01:49.603Z,31.05
2022-11-27T17:04:35.254Z,28.60
2022-11-27T17:07:22.384Z,26.63
2022-11-27T17:10:08.614Z,28.75
2022-11-27T17:12:54.295Z,24.42
2022-11-27T17:15:40.886Z,33.92
2022-11-27T17:18:27.667Z,29.38
2022-11-27T17:21:18.522Z,26.48
2022-11-27T17:24:15.119Z,21.55
2022-11-27T17:27:03.107Z,17.17
2022-11-27T17:29:48.911Z,21.98
2022-11-27T17:32:36.028Z,21.80
2022-11-27T17:35:21.630Z,19.10
2022-11-27T17:38:06.923Z,19.02
2022-11-27T17:40:53.114Z,30.45
2022-11-27T17:43:39.630Z,42.58
2022-11-27T17:46:47.009Z,37.75
2022-11-27T17:49:47.996Z,23.73
2022-11-27T17:52:42.302Z,14.90
2022-11-27T17:55:30.024Z,17.75
2022-11-27T17:58:16.448Z,21.65
2022-11-27T18:01:06.675Z,31.33
2022-11-27T18:03:59.803Z,36.42
2022-11-27T18:06:48.004Z,25.65
2022-11-27T18:09:33.648Z,28.42
2022-11-27T18:12:19.036Z,30.98
2022-11-27T18:15:09.750Z,69.53
2022-11-27T18:17:55.211Z,82.57
2022-11-27T18:20:40.707Z,116.10
2022-11-27T18:23:26.331Z,83.28
2022-11-27T18:26:15.276Z,60.58
2022-11-27T18:29:00.827Z,36.85
2022-11-27T18:31:46.964Z,30.67
2022-11-27T18:34:32.527Z,25.00
2022-11-27T18:37:18.006Z,24.48
2022-11-27T18:40:09.359Z,16.45
2022-11-27T18:42:55.748Z,24.73
2022-11-27T18:45:42.059Z,20.48
2022-11-27T18:48:27.748Z,25.55
2022-11-27T18:51:16.095Z,31.77
2022-11-27T18:54:01.948Z,16.83
2022-11-27T18:56:48.208Z,27.20
2022-11-27T18:59:34.646Z,21.15
2022-11-27T19:02:20.664Z,21.73
2022-11-27T19:05:06.997Z,22.40
2022-11-27T19:07:53.263Z,21.38
2022-11-27T19:10:39.069Z,34.50
2022-11-27T19:13:24.361Z,19.40
2022-11-27T19:16:23.253Z,19.17
2022-11-27T19:19:52.236Z,30.67
2022-11-27T19:22:21.103Z,79.68
2022-11-27T19:25:09.435Z,98.00
2022-11-27T19:27:59.844Z,96.95
2022-11-27T19:30:46.244Z,30.45
2022-11-27T19:33:32.028Z,25.75
2022-11-27T19:36:17.690Z,21.88
2022-11-27T19:39:07.550Z,16.85
2022-11-27T19:41:53.004Z,24.13
2022-11-27T19:44:38.972Z,14.50
2022-11-27T19:47:24.937Z,15.45
2022-11-27T19:50:12.238Z,17.08
2022-11-27T19:52:59.575Z,21.23
2022-11-27T19:55:51.955Z,25.75
2022-11-27T20:01:24.638Z,20.60
2022-11-27T20:04:11.793Z,18.67
2022-11-27T20:06:57.465Z,28.67
2022-11-27T20:09:42.944Z,60.10
2022-11-27T20:12:28.395Z,50.08
2022-11-27T20:15:14.454Z,50.53
2022-11-27T20:18:00.293Z,54.92
2022-11-27T20:20:46.374Z,34.08
2022-11-27T20:23:33.106Z,28.92
2022-11-27T20:26:30.591Z,33.22
2022-11-27T20:29:17.459Z,51.13
2022-11-27T20:32:03.467Z,29.23
2022-11-27T20:34:49.208Z,25.73
2022-11-27T20:37:35.267Z,28.58
2022-11-27T20:40:23.542Z,26.05
2022-11-27T20:43:09.122Z,27.60
2022-11-27T20:45:54.649Z,18.65
2022-11-27T20:48:40.077Z,17.98
2022-11-27T20:51:28.809Z,24.08
2022-11-27T20:54:14.606Z,23.60
2022-11-27T20:57:01.499Z,21.15
2022-11-27T20:59:47.331Z,14.65
2022-11-27T21:02:33.644Z,22.23
2022-11-27T21:05:20.087Z,22.52
2022-11-27T21:08:05.421Z,19.33
2022-11-27T21:10:50.975Z,19.55
2022-11-27T21:13:36.603Z,19.13
2022-11-27T21:16:23.199Z,22.25
2022-11-27T21:19:15.339Z,29.85
2022-11-27T21:24:50.265Z,19.10
2022-11-27T21:27:37.405Z,16.13
2022-11-27T21:30:23.694Z,15.18
2022-11-27T21:33:09.148Z,26.42
2022-11-27T21:35:56.137Z,21.58
2022-11-27T21:38:43.418Z,21.50
2022-11-27T21:41:31.823Z,24.70
2022-11-27T21:44:18.180Z,15.25
2022-11-27T21:47:06.045Z,15.60
2022-11-27T21:49:51.437Z,19.60
2022-11-27T21:52:37.423Z,14.85
2022-11-27T21:55:22.813Z,15.45
2022-11-27T21:58:08.908Z,18.35
2022-11-27T22:00:54.170Z,22.45
2022-11-27T22:03:42.572Z,19.88
2022-11-27T22:06:31.080Z,15.88
2022-11-27T22:09:16.684Z,18.50
2022-11-27T22:12:02.655Z,22.42
2022-11-27T22:14:50.446Z,34.15
2022-11-27T22:17:36.530Z,29.88
2022-11-27T22:20:22.005Z,29.52
2022-11-27T22:23:08.368Z,21.00
2022-11-27T22:25:53.912Z,23.67
2022-11-27T22:28:40.437Z,22.20
2022-11-27T22:31:33.894Z,18.65
2022-11-27T22:37:05.989Z,15.32
2022-11-27T22:39:51.622Z,16.90
2022-11-27T22:42:37.077Z,14.68
2022-11-27T22:45:22.419Z,17.98
2022-11-27T22:48:07.795Z,12.93
2022-11-27T22:50:57.129Z,15.70
2022-11-27T22:53:42.918Z,14.77
2022-11-27T22:56:28.568Z,16.42
2022-11-27T23:02:23.089Z,15.27
2022-11-27T23:05:08.853Z,15.70
2022-11-27T23:07:54.281Z,18.63
2022-11-27T23:10:40.385Z,17.27
2022-11-27T23:13:25.617Z,18.85
2022-11-27T23:16:11.881Z,18.60
2022-11-27T23:18:57.532Z,26.52
2022-11-27T23:21:42.892Z,23.08
2022-11-27T23:24:28.428Z,20.52
2022-11-27T23:27:13.694Z,25.65
2022-11-27T23:29:59.074Z,19.50
2022-11-27T23:32:44.411Z,16.27
2022-11-27T23:35:29.813Z,20.75
2022-11-27T23:38:15.231Z,20.85
2022-11-27T23:41:08.938Z,23.92
2022-11-27T23:43:55.100Z,23.88
2022-11-27T23:46:40.810Z,17.88
2022-11-27T23:49:26.339Z,19.75
2022-11-27T23:52:16.844Z,27.55
2022-11-27T23:55:02.402Z,24.98
2022-11-27T23:57:47.735Z,19.60
